createdAt,value
2023-03-14T00:08:46.000Z,826.82715
2023-03-14T00:23:48.217Z,528.27759
2023-03-14T00:38:50.459Z,506.95264
2023-03-14T00:53:52.728Z,347.98471
2023-03-14T01:08:55.028Z,203.55652
2023-03-14T01:23:57.475Z,109.53279
2023-03-14T01:38:59.705Z,30.04882
2023-03-14T01:54:02.105Z,10.66248
2023-03-14T02:09:04.347Z,0.96932
2023-03-14T02:24:06.619Z,0
2023-03-14T02:39:08.913Z,0
2023-03-14T02:54:11.270Z,0
2023-03-14T03:09:13.547Z,0
2023-03-14T03:24:15.800Z,0
2023-03-14T03:39:18.814Z,0
2023-03-14T03:54:21.104Z,0
2023-03-14T04:09:23.366Z,0
2023-03-14T04:24:25.655Z,0
2023-03-14T04:39:27.937Z,0
2023-03-14T04:54:30.155Z,0
2023-03-14T05:09:32.471Z,0
2023-03-14T05:24:34.732Z,0
2023-03-14T05:39:37.245Z,0
2023-03-14T05:54:39.601Z,0
2023-03-14T06:09:41.939Z,0
2023-03-14T06:24:44.207Z,0
2023-03-14T06:39:46.351Z,0
2023-03-14T06:54:48.635Z,0
2023-03-14T07:09:50.998Z,0
2023-03-14T07:24:53.360Z,0
2023-03-14T07:39:55.627Z,0
2023-03-14T07:54:57.895Z,0
2023-03-14T08:10:00.343Z,0
2023-03-14T08:25:02.607Z,0
2023-03-14T08:40:04.903Z,0
2023-03-14T08:55:07.176Z,0
2023-03-14T09:10:09.491Z,0
2023-03-14T09:25:12.007Z,0
2023-03-14T09:40:14.285Z,0
2023-03-14T09:55:16.505Z,0
2023-03-14T10:10:18.807Z,0
2023-03-14T10:25:21.201Z,0
2023-03-14T10:40:23.462Z,0
2023-03-14T10:55:25.728Z,0
2023-03-14T11:10:28.046Z,0
2023-03-14T11:25:30.310Z,0
2023-03-14T11:40:32.580Z,0
2023-03-14T11:55:34.954Z,0
2023-03-14T12:10:37.268Z,0
2023-03-14T12:25:39.481Z,0
2023-03-14T12:40:41.818Z,0
2023-03-14T12:55:44.350Z,0
2023-03-14T13:10:46.583Z,0
2023-03-14T13:25:48.856Z,0
2023-03-14T13:40:51.080Z,0.96932
2023-03-14T13:55:53.344Z,18.41702
2023-03-14T14:10:55.591Z,94.99304
2023-03-14T14:25:57.887Z,238.45192
2023-03-14T14:41:00.194Z,378.03351
2023-03-14T14:56:02.433Z,505.01401
2023-03-14T15:11:04.766Z,2548.33374
2023-03-14T15:26:07.125Z,6510.90039
2023-03-14T15:41:09.335Z,6449.8335
2023-03-14T15:56:11.611Z,20468.0918
2023-03-14T16:11:13.850Z,17278.07031
2023-03-14T16:26:16.085Z,19352.4082
2023-03-14T16:41:18.530Z,22190.56836
2023-03-14T16:56:20.859Z,10472.49805
2023-03-14T17:11:23.100Z,14996.29883
2023-03-14T17:26:26.061Z,13273.82324
2023-03-14T17:41:28.283Z,13562.67969
2023-03-14T17:56:30.569Z,11513.54395
2023-03-14T18:11:32.857Z,13513.24414
2023-03-14T18:26:35.227Z,10047.9375
2023-03-14T18:41:37.534Z,13169.13672
2023-03-14T18:56:39.809Z,12806.6123
2023-03-14T19:11:42.032Z,12797.88867
2023-03-14T19:26:44.514Z,9259.88281
2023-03-14T19:41:46.856Z,5682.13477
2023-03-14T19:56:49.214Z,5539.64502
2023-03-14T20:11:51.606Z,13366.87793
2023-03-14T20:26:53.859Z,9383.95508
2023-03-14T20:41:56.140Z,10205.93555
2023-03-14T20:56:58.398Z,5824.62402
2023-03-14T21:12:00.594Z,11412.73535
2023-03-14T21:27:02.803Z,15621.50781
2023-03-14T21:42:05.064Z,14089.98828
2023-03-14T21:57:07.366Z,14999.20703
2023-03-14T22:12:09.521Z,9402.37207
2023-03-14T22:27:13.238Z,12676.72363
2023-03-14T22:42:15.582Z,11121.94043
2023-03-14T22:57:17.744Z,7823.35547
2023-03-14T23:12:19.948Z,5724.78467
2023-03-14T23:27:22.383Z,2976.77173
2023-03-14T23:42:24.775Z,3449.7981
2023-03-14T23:57:26.967Z,2780.00024
